Flight Track Log - Related Links

Times and Time Zones

All times are in EST time to prevent confusion due to time zone crossing. See the N6711L flight status page for this flight to view local times or setup timezone preferences in your user account.

Time Position Orientation Groundspeed Altitude Reporting Facility
EST Latitude Longitude Course Direction KTS MPH feet Rate Location/Type
Mon 05:55:11 PM 30.3319 -81.5086 167° South 120 138 300  Level Jacksonville Center
Mon 05:56:06 PM 30.3069 -81.5019 167° South 109 125 1,500 1,241 Climbing Jacksonville Center
Mon 05:57:07 PM 30.3094 -81.5331 275° West 109 125 2,700 1,230 Climbing Jacksonville Center
Mon 05:58:08 PM 30.3075 -81.5619 266° West 101 116 4,000 1,255 Climbing Jacksonville Center
Mon 05:58:57 PM 30.2869 -81.5744 208° Southwest 99 114 5,000 945 Climbing Jacksonville Center
Mon 06:00:15 PM 30.2453 -81.5894 197° South 127 146 6,000 850 Climbing Jacksonville Center
Mon 06:01:04 PM 30.2203 -81.6017 203° Southwest 126 145 6,800 600 Climbing Jacksonville Center
Mon 06:02:05 PM 30.1808 -81.6142 195° South 161 185 7,100 148 Climbing Jacksonville Center
Mon 06:03:06 PM 30.1350 -81.6292 196° South 163 188 7,100  Level Jacksonville Center
Mon 06:04:07 PM 30.0892 -81.6442 196° South 172 198 7,100  Level Jacksonville Center
Mon 06:05:02 PM 30.0497 -81.6592 198° South 166 191 7,100  Level Jacksonville Center
Mon 06:06:03 PM 30.0039 -81.6742 196° South 169 194 7,100  Level Jacksonville Center
Mon 06:07:10 PM 29.9539 -81.6939 199° South 167 192 7,100  Level Jacksonville Center
Mon 06:08:16 PM 29.9019 -81.7067 192° South 167 192 7,100  Level Jacksonville Center
Mon 06:09:17 PM 29.8583 -81.7239 199° South 168 193 7,100  Level Jacksonville Center
Mon 06:10:25 PM 29.8103 -81.7411 197° South 169 194 7,100  Level Jacksonville Center
Mon 06:11:19 PM 29.7686 -81.7536 195° South 168 193 7,100  Level Jacksonville Center
Mon 06:12:20 PM 29.7231 -81.7708 198° South 167 192 7,100  Level Jacksonville Center
Mon 06:13:21 PM 29.6750 -81.7858 195° South 167 192 7,100  Level Jacksonville Center
Mon 06:14:22 PM 29.6314 -81.8031 199° South 168 193 7,100  Level Jacksonville Center
Mon 06:15:23 PM 29.5875 -81.8156 194° South 167 192 7,100  Level Jacksonville Center
Mon 06:16:24 PM 29.5419 -81.8350 200° South 169 194 7,100  Level Jacksonville Center
Mon 06:17:25 PM 29.4961 -81.8475 193° South 168 193 7,100  Level Jacksonville Center
Mon 06:18:20 PM 29.4544 -81.8622 197° South 171 197 7,100  Level Jacksonville Center
Mon 06:19:15 PM 29.4128 -81.8769 197° South 170 196 7,100  Level Jacksonville Center
Mon 06:20:21 PM 29.3628 -81.8942 197° South 171 197 7,100  Level Jacksonville Center
Mon 06:21:28 PM 29.3108 -81.9114 196° South 168 193 7,100  Level Jacksonville Center
Mon 06:22:29 PM 29.2650 -81.9286 198° South 171 197 7,100  Level Jacksonville Center
Mon 06:23:24 PM 29.2233 -81.9433 197° South 168 193 7,100  Level Jacksonville Center
Mon 06:24:31 PM 29.1733 -81.9581 194° South 169 194 7,100  Level Jacksonville Center
Mon 06:25:32 PM 29.1275 -81.9750 198° South 169 194 7,100  Level Jacksonville Center
Mon 06:26:39 PM 29.0797 -81.9897 195° South 168 193 7,100 49 Level Jacksonville Center
Mon 06:27:34 PM 29.0381 -82.0044 197° South 167 192 7,200 58 Climbing Jacksonville Center
Mon 06:28:23 PM 28.9983 -82.0167 195° South 169 194 7,200  Level Jacksonville Center
Mon 06:29:36 PM 28.9464 -82.0361 198° South 167 192 7,200  Level Jacksonville Center
Mon 06:30:43 PM 28.8964 -82.0506 194° South 169 194 7,200  Level Jacksonville Center
Mon 06:31:44 PM 28.8486 -82.0678 198° South 170 196 7,200  Level Jacksonville Center
Mon 06:33:52 PM 28.7500 -82.1000 196° South 166 191 7,200  Level Tampa TRACON
Mon 06:34:52 PM 28.7167 -82.1167 204° Southwest 166 191 7,200  Level Tampa TRACON
Mon 06:35:58 PM 28.6667 -82.1333 196° South 169 194 7,200  Level Tampa TRACON
Mon 06:36:52 PM 28.6167 -82.1333 180° South 177 204 7,200  Level Tampa TRACON
Mon 06:37:52 PM 28.5667 -82.1167 164° South 176 203 7,200  Level Tampa TRACON
Mon 06:38:52 PM 28.5167 -82.1167 180° South 174 200 7,200  Level Tampa TRACON
Mon 06:39:52 PM 28.4667 -82.1000 164° South 173 199 7,200  Level Tampa TRACON
Mon 06:40:52 PM 28.4333 -82.1000 180° South 174 200 7,200  Level Tampa TRACON
Mon 06:41:53 PM 28.3833 -82.0833 164° South 175 201 7,200  Level Tampa TRACON
Mon 06:42:53 PM 28.3333 -82.0833 180° South 177 204 7,200  Level Tampa TRACON
Mon 06:43:53 PM 28.2833 -82.0667 164° South 176 203 7,200  Level Tampa TRACON
Mon 06:44:52 PM 28.2333 -82.0667 180° South 174 200 7,200  Level Tampa TRACON
Mon 06:45:46 PM 28.1833 -82.0500 164° South 175 201 7,200  Level Tampa TRACON
Mon 06:46:53 PM 28.1333 -82.0500 180° South 175 201 7,200  Level Tampa TRACON
Mon 06:47:47 PM 28.1000 -82.0333 156° South 175 201 7,200  Level Tampa TRACON
Mon 06:49:45 PM 27.9994 -82.0181 172° South 158 182 7,200  Level Miami Center
Mon 06:50:45 PM 27.9497 -82.0017 164° South 170 196 7,200  Level Miami Center
Mon 06:51:45 PM 27.9025 -81.9831 161° South 177 204 7,200  Level Miami Center
Mon 06:52:45 PM 27.8572 -81.9647 160° South 182 209 7,200  Level Miami Center
Mon 06:53:45 PM 27.8100 -81.9461 161° South 182 209 7,200  Level Miami Center
Mon 06:54:45 PM 27.7628 -81.9228 156° South 182 209 7,200  Level Miami Center
Mon 06:55:45 PM 27.7153 -81.9067 163° South 182 209 7,200  Level Miami Center
Mon 06:56:45 PM 27.6722 -81.8883 159° South 182 209 7,200  Level Miami Center
Mon 06:57:45 PM 27.6247 -81.8700 161° South 182 209 7,200  Level Miami Center
Mon 06:58:45 PM 27.5733 -81.8489 160° South 182 209 7,200  Level Miami Center
Mon 06:59:45 PM 27.5300 -81.8331 162° South 187 215 7,200  Level Miami Center
Mon 07:00:45 PM 27.4806 -81.8144 162° South 187 215 7,200  Level Miami Center
Mon 07:01:45 PM 27.4333 -81.7961 161° South 182 209 7,200  Level Miami Center
Mon 07:02:45 PM 27.3839 -81.7775 162° South 182 209 7,200  Level Miami Center
Mon 07:03:45 PM 27.3364 -81.7592 161° South 182 209 7,200  Level Miami Center
Mon 07:04:45 PM 27.2892 -81.7408 161° South 182 209 7,200  Level Miami Center
Mon 07:05:45 PM 27.2417 -81.7247 163° South 182 209 7,200  Level Miami Center
Mon 07:06:45 PM 27.1953 -81.7322 188° South 182 209 7,200 -50 Level Miami Center
Mon 07:07:45 PM 27.1472 -81.7347 183° South 177 204 7,100  Descending Miami Center
Mon 07:08:45 PM 27.0992 -81.7375 183° South 177 204 7,200 50 Climbing Miami Center
Mon 07:09:45 PM 27.0511 -81.7378 180° South 177 204 7,200  Level Miami Center
Mon 07:10:45 PM 27.0053 -81.7381 180° South 177 204 7,200  Level Miami Center
Mon 07:11:45 PM 26.9592 -81.7408 183° South 177 204 7,200  Level Miami Center
Mon 07:12:45 PM 26.9111 -81.7436 183° South 177 204 7,200  Level Miami Center
Mon 07:14:00 PM 26.8554 -81.7358 173° South  Level FlightAware Approximate
Mon 07:21:00 PM 26.5412 -81.7536 193° South  Level Estimated
Mon 07:22:00 PM 26.5002 -81.7333 156° South  Level FlightAware Approximate
Mon 07:23:00 PM 26.4555 -81.7387 187° South  Level Estimated
Mon 07:24:00 PM 26.4106 -81.7410 183° South  Level FlightAware Approximate
Mon 07:25:00 PM 26.3657 -81.7433 183° South  Level FlightAware Approximate
Mon 07:26:00 PM 26.3208 -81.7456 183° South  Level FlightAware Approximate
Mon 07:27:00 PM 26.2759 -81.7478 183° South  Level FlightAware Approximate
Mon 07:28:00 PM 26.2319 -81.7578 190° South  Level Estimated
Mon 07:29:00 PM 26.1872 -81.7626 186° South  Level FlightAware Approximate
Mon 07:30:00 PM 26.1500 -81.7667 190° South  Level FlightAware Approximate
Mon 07:31:00 PM 26.1524 -81.7756 190° South  Level Estimated
Mon 07:32:00 PM 26.1524 -81.7756 190° South  Level Estimated
Mon 07:33:00 PM 26.1524 -81.7756 190° South  Level Estimated
Mon 07:34:00 PM 26.1524 -81.7756 190° South  Level Estimated
Mon 07:35:00 PM 26.1524 -81.7756 190° South  Level Estimated
Mon 07:36:00 PM 26.1524 -81.7756 190° South  Level Estimated
Mon 07:37:00 PM 26.1524 -81.7756 190° South  Level Estimated
Mon 07:38:00 PM 26.1524 -81.7756 190° South  Level Estimated
Mon 07:39:00 PM 26.1524 -81.7756 190° South  Level Estimated
Mon 07:40:00 PM 26.1524 -81.7756 190° South  Level Estimated

Login

Don't have an account? Register now (free) for customized features, flight alerts, and more!